sensor_id;sensor_type;location;lat;lon;timestamp;P1;durP1;ratioP1;P2;durP2;ratioP2
4023;SDS011;2026;51.002;13.668;2024-03-02T00:00:25;68.27;;;39.70;;
4023;SDS011;2026;51.002;13.668;2024-03-02T00:05:28;69.67;;;39.97;;
4023;SDS011;2026;51.002;13.668;2024-03-02T00:10:35;68.67;;;40.13;;
4023;SDS011;2026;51.002;13.668;2024-03-02T00:15:42;65.60;;;39.17;;
4023;SDS011;2026;51.002;13.668;2024-03-02T00:20:49;62.40;;;38.30;;
4023;SDS011;2026;51.002;13.668;2024-03-02T00:25:57;63.20;;;39.67;;
4023;SDS011;2026;51.002;13.668;2024-03-02T00:31:02;68.17;;;38.10;;
4023;SDS011;2026;51.002;13.668;2024-03-02T00:36:06;57.70;;;35.90;;
4023;SDS011;2026;51.002;13.668;2024-03-02T00:41:15;65.93;;;36.43;;
4023;SDS011;2026;51.002;13.668;2024-03-02T00:46:19;59.53;;;36.37;;
4023;SDS011;2026;51.002;13.668;2024-03-02T00:51:23;62.70;;;37.00;;
4023;SDS011;2026;51.002;13.668;2024-03-02T00:56:28;60.60;;;37.23;;
4023;SDS011;2026;51.002;13.668;2024-03-02T01:01:31;59.50;;;36.00;;
4023;SDS011;2026;51.002;13.668;2024-03-02T01:06:34;65.57;;;38.40;;
4023;SDS011;2026;51.002;13.668;2024-03-02T01:11:39;58.33;;;37.07;;
4023;SDS011;2026;51.002;13.668;2024-03-02T01:16:42;60.43;;;36.80;;
4023;SDS011;2026;51.002;13.668;2024-03-02T01:21:45;57.53;;;37.27;;
4023;SDS011;2026;51.002;13.668;2024-03-02T01:26:49;57.70;;;36.83;;
4023;SDS011;2026;51.002;13.668;2024-03-02T01:31:52;62.73;;;35.23;;
4023;SDS011;2026;51.002;13.668;2024-03-02T01:36:55;60.83;;;35.47;;
4023;SDS011;2026;51.002;13.668;2024-03-02T01:41:59;61.10;;;36.27;;
4023;SDS011;2026;51.002;13.668;2024-03-02T01:47:02;65.70;;;38.33;;
4023;SDS011;2026;51.002;13.668;2024-03-02T01:52:05;58.23;;;35.40;;
4023;SDS011;2026;51.002;13.668;2024-03-02T01:57:10;64.53;;;37.80;;
4023;SDS011;2026;51.002;13.668;2024-03-02T02:02:13;57.17;;;35.43;;
4023;SDS011;2026;51.002;13.668;2024-03-02T02:07:16;54.63;;;32.80;;
4023;SDS011;2026;51.002;13.668;2024-03-02T02:12:20;61.53;;;35.33;;
4023;SDS011;2026;51.002;13.668;2024-03-02T02:17:23;52.13;;;33.77;;
4023;SDS011;2026;51.002;13.668;2024-03-02T02:22:27;55.47;;;33.93;;
4023;SDS011;2026;51.002;13.668;2024-03-02T02:27:30;53.60;;;34.00;;
4023;SDS011;2026;51.002;13.668;2024-03-02T02:32:33;54.33;;;35.00;;
4023;SDS011;2026;51.002;13.668;2024-03-02T02:37:38;63.13;;;37.43;;
4023;SDS011;2026;51.002;13.668;2024-03-02T02:42:41;61.50;;;35.77;;
4023;SDS011;2026;51.002;13.668;2024-03-02T02:47:44;57.77;;;35.30;;
4023;SDS011;2026;51.002;13.668;2024-03-02T02:52:49;58.40;;;33.60;;
4023;SDS011;2026;51.002;13.668;2024-03-02T02:57:52;53.83;;;33.87;;
4023;SDS011;2026;51.002;13.668;2024-03-02T03:02:55;56.23;;;33.87;;
4023;SDS011;2026;51.002;13.668;2024-03-02T03:07:59;56.57;;;35.63;;
4023;SDS011;2026;51.002;13.668;2024-03-02T03:13:02;56.40;;;34.23;;
4023;SDS011;2026;51.002;13.668;2024-03-02T03:18:05;56.03;;;35.10;;
4023;SDS011;2026;51.002;13.668;2024-03-02T03:23:11;55.50;;;32.07;;
4023;SDS011;2026;51.002;13.668;2024-03-02T03:28:16;62.63;;;33.07;;
4023;SDS011;2026;51.002;13.668;2024-03-02T03:33:19;61.90;;;33.07;;
4023;SDS011;2026;51.002;13.668;2024-03-02T03:38:24;59.63;;;31.33;;
4023;SDS011;2026;51.002;13.668;2024-03-02T03:43:26;68.13;;;37.57;;
4023;SDS011;2026;51.002;13.668;2024-03-02T03:48:30;68.77;;;40.63;;
4023;SDS011;2026;51.002;13.668;2024-03-02T03:53:35;63.63;;;37.67;;
4023;SDS011;2026;51.002;13.668;2024-03-02T03:58:38;64.13;;;37.10;;
4023;SDS011;2026;51.002;13.668;2024-03-02T04:03:41;60.60;;;36.73;;
4023;SDS011;2026;51.002;13.668;2024-03-02T04:08:45;60.87;;;32.50;;
4023;SDS011;2026;51.002;13.668;2024-03-02T04:13:48;54.77;;;31.40;;
4023;SDS011;2026;51.002;13.668;2024-03-02T04:18:51;60.00;;;30.57;;
4023;SDS011;2026;51.002;13.668;2024-03-02T04:23:55;56.43;;;31.33;;
4023;SDS011;2026;51.002;13.668;2024-03-02T04:29:00;55.83;;;29.57;;
4023;SDS011;2026;51.002;13.668;2024-03-02T04:34:03;56.97;;;29.80;;
4023;SDS011;2026;51.002;13.668;2024-03-02T04:39:08;57.27;;;29.90;;
4023;SDS011;2026;51.002;13.668;2024-03-02T04:44:12;59.73;;;34.40;;
4023;SDS011;2026;51.002;13.668;2024-03-02T04:49:15;62.17;;;34.47;;
4023;SDS011;2026;51.002;13.668;2024-03-02T04:54:19;60.47;;;34.40;;
4023;SDS011;2026;51.002;13.668;2024-03-02T04:59:22;58.67;;;32.87;;
4023;SDS011;2026;51.002;13.668;2024-03-02T05:04:25;55.50;;;30.13;;
4023;SDS011;2026;51.002;13.668;2024-03-02T05:09:29;50.90;;;29.10;;
4023;SDS011;2026;51.002;13.668;2024-03-02T05:14:32;55.90;;;29.80;;
4023;SDS011;2026;51.002;13.668;2024-03-02T05:19:35;53.40;;;30.60;;
4023;SDS011;2026;51.002;13.668;2024-03-02T05:24:40;55.20;;;32.23;;
4023;SDS011;2026;51.002;13.668;2024-03-02T05:29:42;53.60;;;32.50;;
4023;SDS011;2026;51.002;13.668;2024-03-02T05:34:45;51.97;;;32.80;;
4023;SDS011;2026;51.002;13.668;2024-03-02T05:39:50;56.47;;;33.10;;
4023;SDS011;2026;51.002;13.668;2024-03-02T05:44:53;53.47;;;31.80;;
4023;SDS011;2026;51.002;13.668;2024-03-02T05:49:56;54.30;;;32.00;;
4023;SDS011;2026;51.002;13.668;2024-03-02T05:55:00;54.57;;;31.70;;
4023;SDS011;2026;51.002;13.668;2024-03-02T06:00:04;56.43;;;31.80;;
4023;SDS011;2026;51.002;13.668;2024-03-02T06:05:29;52.03;;;31.50;;
4023;SDS011;2026;51.002;13.668;2024-03-02T06:10:33;50.73;;;31.30;;
4023;SDS011;2026;51.002;13.668;2024-03-02T06:15:36;54.20;;;31.47;;
4023;SDS011;2026;51.002;13.668;2024-03-02T06:20:39;57.70;;;31.93;;
4023;SDS011;2026;51.002;13.668;2024-03-02T06:25:44;59.33;;;33.07;;
4023;SDS011;2026;51.002;13.668;2024-03-02T06:30:47;51.73;;;30.50;;
4023;SDS011;2026;51.002;13.668;2024-03-02T06:35:50;55.90;;;30.60;;
4023;SDS011;2026;51.002;13.668;2024-03-02T06:40:54;55.57;;;31.30;;
4023;SDS011;2026;51.002;13.668;2024-03-02T06:45:57;49.67;;;29.73;;
4023;SDS011;2026;51.002;13.668;2024-03-02T06:51:00;51.87;;;30.63;;
4023;SDS011;2026;51.002;13.668;2024-03-02T06:56:05;48.40;;;28.20;;
4023;SDS011;2026;51.002;13.668;2024-03-02T07:01:09;49.13;;;28.10;;
4023;SDS011;2026;51.002;13.668;2024-03-02T07:06:12;51.90;;;27.80;;
4023;SDS011;2026;51.002;13.668;2024-03-02T07:11:16;54.70;;;31.60;;
4023;SDS011;2026;51.002;13.668;2024-03-02T07:16:19;56.70;;;31.57;;
4023;SDS011;2026;51.002;13.668;2024-03-02T07:21:29;55.43;;;31.20;;
4023;SDS011;2026;51.002;13.668;2024-03-02T07:26:35;50.23;;;27.90;;
4023;SDS011;2026;51.002;13.668;2024-03-02T07:31:40;56.97;;;33.57;;
4023;SDS011;2026;51.002;13.668;2024-03-02T07:36:43;55.00;;;28.80;;
4023;SDS011;2026;51.002;13.668;2024-03-02T07:41:48;53.30;;;30.30;;
4023;SDS011;2026;51.002;13.668;2024-03-02T07:46:51;54.23;;;30.90;;
4023;SDS011;2026;51.002;13.668;2024-03-02T07:51:54;53.80;;;28.93;;
4023;SDS011;2026;51.002;13.668;2024-03-02T07:56:58;40.83;;;25.27;;
4023;SDS011;2026;51.002;13.668;2024-03-02T08:02:02;50.73;;;30.10;;
4023;SDS011;2026;51.002;13.668;2024-03-02T08:07:05;61.80;;;35.37;;
4023;SDS011;2026;51.002;13.668;2024-03-02T08:12:11;55.63;;;30.97;;
4023;SDS011;2026;51.002;13.668;2024-03-02T08:17:14;61.20;;;34.30;;
4023;SDS011;2026;51.002;13.668;2024-03-02T08:22:17;66.47;;;34.43;;
4023;SDS011;2026;51.002;13.668;2024-03-02T08:27:21;64.33;;;35.10;;
4023;SDS011;2026;51.002;13.668;2024-03-02T08:32:24;68.53;;;35.93;;
4023;SDS011;2026;51.002;13.668;2024-03-02T08:37:27;61.33;;;35.77;;
4023;SDS011;2026;51.002;13.668;2024-03-02T08:42:32;64.30;;;36.70;;
4023;SDS011;2026;51.002;13.668;2024-03-02T08:47:35;64.57;;;37.97;;
4023;SDS011;2026;51.002;13.668;2024-03-02T08:52:38;69.50;;;36.73;;
4023;SDS011;2026;51.002;13.668;2024-03-02T08:57:43;75.90;;;45.50;;
4023;SDS011;2026;51.002;13.668;2024-03-02T09:02:46;32.77;;;20.97;;
4023;SDS011;2026;51.002;13.668;2024-03-02T09:07:49;27.63;;;16.80;;
4023;SDS011;2026;51.002;13.668;2024-03-02T09:12:53;69.83;;;39.07;;
4023;SDS011;2026;51.002;13.668;2024-03-02T09:17:56;59.20;;;34.63;;
4023;SDS011;2026;51.002;13.668;2024-03-02T09:22:59;54.27;;;31.03;;
4023;SDS011;2026;51.002;13.668;2024-03-02T09:28:03;50.83;;;30.23;;
4023;SDS011;2026;51.002;13.668;2024-03-02T09:33:07;45.57;;;25.10;;
4023;SDS011;2026;51.002;13.668;2024-03-02T09:38:13;44.57;;;25.20;;
4023;SDS011;2026;51.002;13.668;2024-03-02T09:43:17;33.17;;;21.30;;
4023;SDS011;2026;51.002;13.668;2024-03-02T09:48:20;29.30;;;19.10;;
4023;SDS011;2026;51.002;13.668;2024-03-02T09:53:23;23.50;;;15.03;;
4023;SDS011;2026;51.002;13.668;2024-03-02T09:58:28;18.83;;;12.03;;
4023;SDS011;2026;51.002;13.668;2024-03-02T10:03:31;20.63;;;13.50;;
4023;SDS011;2026;51.002;13.668;2024-03-02T10:08:42;24.27;;;15.20;;
4023;SDS011;2026;51.002;13.668;2024-03-02T10:13:47;34.10;;;19.37;;
4023;SDS011;2026;51.002;13.668;2024-03-02T10:18:51;27.97;;;16.63;;
4023;SDS011;2026;51.002;13.668;2024-03-02T10:23:55;23.67;;;12.73;;
4023;SDS011;2026;51.002;13.668;2024-03-02T10:29:11;20.93;;;12.07;;
4023;SDS011;2026;51.002;13.668;2024-03-02T10:34:14;17.30;;;12.30;;
4023;SDS011;2026;51.002;13.668;2024-03-02T10:39:17;15.80;;;10.77;;
4023;SDS011;2026;51.002;13.668;2024-03-02T10:44:22;16.07;;;10.20;;
4023;SDS011;2026;51.002;13.668;2024-03-02T10:49:25;12.03;;;9.17;;
4023;SDS011;2026;51.002;13.668;2024-03-02T10:54:30;13.63;;;9.20;;
4023;SDS011;2026;51.002;13.668;2024-03-02T10:59:42;11.50;;;8.80;;
4023;SDS011;2026;51.002;13.668;2024-03-02T11:04:54;17.07;;;8.90;;
4023;SDS011;2026;51.002;13.668;2024-03-02T11:09:59;11.70;;;8.90;;
4023;SDS011;2026;51.002;13.668;2024-03-02T11:15:11;13.60;;;10.70;;
4023;SDS011;2026;51.002;13.668;2024-03-02T11:20:20;14.77;;;9.77;;
4023;SDS011;2026;51.002;13.668;2024-03-02T11:25:24;13.17;;;9.40;;
4023;SDS011;2026;51.002;13.668;2024-03-02T11:36:00;15.90;;;10.10;;
4023;SDS011;2026;51.002;13.668;2024-03-02T11:41:05;15.90;;;11.17;;
4023;SDS011;2026;51.002;13.668;2024-03-02T11:46:11;16.47;;;10.80;;
4023;SDS011;2026;51.002;13.668;2024-03-02T11:51:15;16.73;;;11.53;;
4023;SDS011;2026;51.002;13.668;2024-03-02T11:56:19;20.70;;;12.20;;
4023;SDS011;2026;51.002;13.668;2024-03-02T12:01:25;20.53;;;12.57;;
4023;SDS011;2026;51.002;13.668;2024-03-02T12:06:28;22.13;;;13.07;;
4023;SDS011;2026;51.002;13.668;2024-03-02T12:11:32;20.30;;;12.23;;
4023;SDS011;2026;51.002;13.668;2024-03-02T12:16:37;19.90;;;12.17;;
4023;SDS011;2026;51.002;13.668;2024-03-02T12:21:41;18.80;;;11.60;;
4023;SDS011;2026;51.002;13.668;2024-03-02T12:26:44;20.40;;;12.50;;
4023;SDS011;2026;51.002;13.668;2024-03-02T12:31:51;19.20;;;11.33;;
4023;SDS011;2026;51.002;13.668;2024-03-02T12:36:55;16.53;;;10.20;;
4023;SDS011;2026;51.002;13.668;2024-03-02T12:41:58;21.60;;;10.47;;
4023;SDS011;2026;51.002;13.668;2024-03-02T12:47:03;14.50;;;9.90;;
4023;SDS011;2026;51.002;13.668;2024-03-02T12:52:07;18.20;;;10.23;;
4023;SDS011;2026;51.002;13.668;2024-03-02T12:57:10;21.03;;;9.70;;
4023;SDS011;2026;51.002;13.668;2024-03-02T13:02:21;23.10;;;11.30;;
4023;SDS011;2026;51.002;13.668;2024-03-02T13:07:25;20.93;;;11.67;;
4023;SDS011;2026;51.002;13.668;2024-03-02T13:12:28;20.87;;;11.87;;
4023;SDS011;2026;51.002;13.668;2024-03-02T13:17:35;20.77;;;12.87;;
4023;SDS011;2026;51.002;13.668;2024-03-02T13:22:39;23.50;;;13.77;;
4023;SDS011;2026;51.002;13.668;2024-03-02T13:27:43;23.63;;;12.77;;
4023;SDS011;2026;51.002;13.668;2024-03-02T13:32:47;20.73;;;13.03;;
4023;SDS011;2026;51.002;13.668;2024-03-02T13:37:50;22.10;;;13.40;;
4023;SDS011;2026;51.002;13.668;2024-03-02T13:42:53;24.33;;;13.57;;
4023;SDS011;2026;51.002;13.668;2024-03-02T13:47:58;25.40;;;13.80;;
4023;SDS011;2026;51.002;13.668;2024-03-02T13:53:03;28.90;;;15.50;;
4023;SDS011;2026;51.002;13.668;2024-03-02T13:58:08;28.87;;;16.43;;
4023;SDS011;2026;51.002;13.668;2024-03-02T14:03:13;26.90;;;15.57;;
4023;SDS011;2026;51.002;13.668;2024-03-02T14:08:16;27.27;;;15.03;;
4023;SDS011;2026;51.002;13.668;2024-03-02T14:13:19;30.80;;;16.87;;
4023;SDS011;2026;51.002;13.668;2024-03-02T14:18:24;29.83;;;15.73;;
4023;SDS011;2026;51.002;13.668;2024-03-02T14:23:27;28.87;;;16.23;;
4023;SDS011;2026;51.002;13.668;2024-03-02T14:28:30;27.70;;;16.60;;
4023;SDS011;2026;51.002;13.668;2024-03-02T14:33:52;33.30;;;19.53;;
4023;SDS011;2026;51.002;13.668;2024-03-02T14:38:56;31.70;;;17.17;;
4023;SDS011;2026;51.002;13.668;2024-03-02T14:43:59;32.30;;;18.50;;
4023;SDS011;2026;51.002;13.668;2024-03-02T14:49:03;28.37;;;18.47;;
4023;SDS011;2026;51.002;13.668;2024-03-02T14:54:06;30.90;;;17.30;;
4023;SDS011;2026;51.002;13.668;2024-03-02T14:59:09;35.83;;;19.73;;
4023;SDS011;2026;51.002;13.668;2024-03-02T15:04:14;31.57;;;17.20;;
4023;SDS011;2026;51.002;13.668;2024-03-02T15:09:21;26.97;;;15.20;;
4023;SDS011;2026;51.002;13.668;2024-03-02T15:14:24;34.30;;;17.20;;
4023;SDS011;2026;51.002;13.668;2024-03-02T15:19:28;28.90;;;16.67;;
4023;SDS011;2026;51.002;13.668;2024-03-02T15:24:31;27.00;;;16.47;;
4023;SDS011;2026;51.002;13.668;2024-03-02T15:29:34;26.57;;;17.37;;
4023;SDS011;2026;51.002;13.668;2024-03-02T15:34:39;29.40;;;16.67;;
4023;SDS011;2026;51.002;13.668;2024-03-02T15:39:42;29.40;;;17.17;;
4023;SDS011;2026;51.002;13.668;2024-03-02T15:44:45;25.37;;;15.60;;
4023;SDS011;2026;51.002;13.668;2024-03-02T15:49:50;25.90;;;16.40;;
4023;SDS011;2026;51.002;13.668;2024-03-02T15:54:53;25.80;;;15.53;;
4023;SDS011;2026;51.002;13.668;2024-03-02T15:59:56;30.20;;;17.17;;
4023;SDS011;2026;51.002;13.668;2024-03-02T16:05:00;29.80;;;16.40;;
4023;SDS011;2026;51.002;13.668;2024-03-02T16:10:03;29.77;;;17.30;;
4023;SDS011;2026;51.002;13.668;2024-03-02T16:15:09;29.70;;;17.67;;
4023;SDS011;2026;51.002;13.668;2024-03-02T16:20:14;29.33;;;17.53;;
4023;SDS011;2026;51.002;13.668;2024-03-02T16:25:16;31.67;;;18.77;;
4023;SDS011;2026;51.002;13.668;2024-03-02T16:30:19;26.97;;;16.70;;
4023;SDS011;2026;51.002;13.668;2024-03-02T16:35:24;31.67;;;18.00;;
4023;SDS011;2026;51.002;13.668;2024-03-02T16:40:27;34.80;;;17.47;;
4023;SDS011;2026;51.002;13.668;2024-03-02T16:45:32;35.00;;;18.97;;
4023;SDS011;2026;51.002;13.668;2024-03-02T16:50:36;28.80;;;17.63;;
4023;SDS011;2026;51.002;13.668;2024-03-02T16:55:39;35.23;;;19.60;;
4023;SDS011;2026;51.002;13.668;2024-03-02T17:00:42;30.70;;;18.23;;
4023;SDS011;2026;51.002;13.668;2024-03-02T17:05:47;40.03;;;19.90;;
4023;SDS011;2026;51.002;13.668;2024-03-02T17:10:50;43.47;;;22.17;;
4023;SDS011;2026;51.002;13.668;2024-03-02T17:15:53;35.73;;;22.20;;
4023;SDS011;2026;51.002;13.668;2024-03-02T17:20:58;38.17;;;22.40;;
4023;SDS011;2026;51.002;13.668;2024-03-02T17:26:01;37.20;;;20.70;;
4023;SDS011;2026;51.002;13.668;2024-03-02T17:31:04;38.93;;;26.23;;
4023;SDS011;2026;51.002;13.668;2024-03-02T17:36:08;39.60;;;24.60;;
4023;SDS011;2026;51.002;13.668;2024-03-02T17:41:11;39.87;;;20.93;;
4023;SDS011;2026;51.002;13.668;2024-03-02T17:46:14;30.00;;;19.47;;
4023;SDS011;2026;51.002;13.668;2024-03-02T17:51:19;31.03;;;20.03;;
4023;SDS011;2026;51.002;13.668;2024-03-02T17:56:22;37.37;;;22.47;;
4023;SDS011;2026;51.002;13.668;2024-03-02T18:01:24;37.40;;;21.83;;
4023;SDS011;2026;51.002;13.668;2024-03-02T18:06:29;32.57;;;21.23;;
4023;SDS011;2026;51.002;13.668;2024-03-02T18:11:32;29.13;;;19.10;;
4023;SDS011;2026;51.002;13.668;2024-03-02T18:16:35;32.00;;;18.23;;
4023;SDS011;2026;51.002;13.668;2024-03-02T18:21:39;25.13;;;16.50;;
4023;SDS011;2026;51.002;13.668;2024-03-02T18:26:42;27.93;;;18.33;;
4023;SDS011;2026;51.002;13.668;2024-03-02T18:31:45;30.50;;;18.40;;
4023;SDS011;2026;51.002;13.668;2024-03-02T18:36:49;28.40;;;18.53;;
4023;SDS011;2026;51.002;13.668;2024-03-02T18:41:55;42.60;;;23.57;;
4023;SDS011;2026;51.002;13.668;2024-03-02T18:46:58;201.43;;;91.90;;
4023;SDS011;2026;51.002;13.668;2024-03-02T18:52:03;123.97;;;60.00;;
4023;SDS011;2026;51.002;13.668;2024-03-02T18:57:06;74.07;;;40.63;;
4023;SDS011;2026;51.002;13.668;2024-03-02T19:02:11;36.13;;;21.77;;
4023;SDS011;2026;51.002;13.668;2024-03-02T19:07:15;27.07;;;16.47;;
4023;SDS011;2026;51.002;13.668;2024-03-02T19:12:18;28.23;;;16.67;;
4023;SDS011;2026;51.002;13.668;2024-03-02T19:17:21;35.30;;;22.23;;
4023;SDS011;2026;51.002;13.668;2024-03-02T19:22:25;51.73;;;30.73;;
4023;SDS011;2026;51.002;13.668;2024-03-02T19:27:29;41.57;;;25.43;;
4023;SDS011;2026;51.002;13.668;2024-03-02T19:32:32;39.27;;;24.40;;
4023;SDS011;2026;51.002;13.668;2024-03-02T19:37:37;40.00;;;24.20;;
4023;SDS011;2026;51.002;13.668;2024-03-02T19:42:42;41.20;;;24.60;;
4023;SDS011;2026;51.002;13.668;2024-03-02T19:47:47;33.17;;;20.90;;
4023;SDS011;2026;51.002;13.668;2024-03-02T19:52:51;32.57;;;19.93;;
4023;SDS011;2026;51.002;13.668;2024-03-02T19:57:54;34.67;;;20.93;;
4023;SDS011;2026;51.002;13.668;2024-03-02T20:02:57;34.80;;;20.13;;
4023;SDS011;2026;51.002;13.668;2024-03-02T20:08:02;41.17;;;24.43;;
4023;SDS011;2026;51.002;13.668;2024-03-02T20:13:05;38.87;;;23.80;;
4023;SDS011;2026;51.002;13.668;2024-03-02T20:18:09;39.93;;;23.27;;
4023;SDS011;2026;51.002;13.668;2024-03-02T20:23:14;42.63;;;24.80;;
4023;SDS011;2026;51.002;13.668;2024-03-02T20:28:17;49.40;;;27.97;;
4023;SDS011;2026;51.002;13.668;2024-03-02T20:33:19;55.03;;;31.27;;
4023;SDS011;2026;51.002;13.668;2024-03-02T20:38:24;55.70;;;29.90;;
4023;SDS011;2026;51.002;13.668;2024-03-02T20:43:27;40.70;;;25.13;;
4023;SDS011;2026;51.002;13.668;2024-03-02T20:48:30;47.40;;;25.80;;
4023;SDS011;2026;51.002;13.668;2024-03-02T20:53:34;39.27;;;23.93;;
4023;SDS011;2026;51.002;13.668;2024-03-02T20:58:37;37.30;;;23.00;;
4023;SDS011;2026;51.002;13.668;2024-03-02T21:03:42;36.20;;;22.23;;
4023;SDS011;2026;51.002;13.668;2024-03-02T21:08:47;36.97;;;21.83;;
4023;SDS011;2026;51.002;13.668;2024-03-02T21:13:50;40.43;;;20.90;;
4023;SDS011;2026;51.002;13.668;2024-03-02T21:18:53;38.80;;;21.00;;
4023;SDS011;2026;51.002;13.668;2024-03-02T21:23:58;38.40;;;21.83;;
4023;SDS011;2026;51.002;13.668;2024-03-02T21:29:01;33.90;;;21.03;;
4023;SDS011;2026;51.002;13.668;2024-03-02T21:34:05;33.73;;;20.50;;
4023;SDS011;2026;51.002;13.668;2024-03-02T21:39:10;39.30;;;21.33;;
4023;SDS011;2026;51.002;13.668;2024-03-02T21:44:13;35.73;;;22.00;;
4023;SDS011;2026;51.002;13.668;2024-03-02T21:49:16;35.57;;;21.83;;
4023;SDS011;2026;51.002;13.668;2024-03-02T21:54:20;43.47;;;24.27;;
4023;SDS011;2026;51.002;13.668;2024-03-02T21:59:23;40.90;;;24.43;;
4023;SDS011;2026;51.002;13.668;2024-03-02T22:04:26;49.70;;;28.97;;
4023;SDS011;2026;51.002;13.668;2024-03-02T22:09:31;49.70;;;28.77;;
4023;SDS011;2026;51.002;13.668;2024-03-02T22:14:34;45.20;;;27.67;;
4023;SDS011;2026;51.002;13.668;2024-03-02T22:19:37;39.53;;;24.43;;
4023;SDS011;2026;51.002;13.668;2024-03-02T22:24:41;43.40;;;25.40;;
4023;SDS011;2026;51.002;13.668;2024-03-02T22:29:45;46.33;;;26.50;;
4023;SDS011;2026;51.002;13.668;2024-03-02T22:34:47;46.80;;;28.17;;
4023;SDS011;2026;51.002;13.668;2024-03-02T22:39:52;53.20;;;30.20;;
4023;SDS011;2026;51.002;13.668;2024-03-02T22:44:55;50.43;;;29.67;;
4023;SDS011;2026;51.002;13.668;2024-03-02T22:49:58;52.73;;;30.27;;
4023;SDS011;2026;51.002;13.668;2024-03-02T22:55:02;55.33;;;31.17;;
4023;SDS011;2026;51.002;13.668;2024-03-02T23:00:06;53.97;;;29.60;;
4023;SDS011;2026;51.002;13.668;2024-03-02T23:05:22;42.80;;;25.97;;
4023;SDS011;2026;51.002;13.668;2024-03-02T23:10:27;44.50;;;23.80;;
4023;SDS011;2026;51.002;13.668;2024-03-02T23:15:29;43.00;;;24.80;;
4023;SDS011;2026;51.002;13.668;2024-03-02T23:20:32;43.37;;;24.90;;
4023;SDS011;2026;51.002;13.668;2024-03-02T23:25:37;52.90;;;27.67;;
4023;SDS011;2026;51.002;13.668;2024-03-02T23:30:40;43.77;;;26.20;;
4023;SDS011;2026;51.002;13.668;2024-03-02T23:35:44;45.37;;;27.60;;
4023;SDS011;2026;51.002;13.668;2024-03-02T23:40:48;44.80;;;26.13;;
4023;SDS011;2026;51.002;13.668;2024-03-02T23:46:09;44.90;;;26.60;;
4023;SDS011;2026;51.002;13.668;2024-03-02T23:51:13;40.40;;;25.10;;
4023;SDS011;2026;51.002;13.668;2024-03-02T23:56:17;41.53;;;25.03;;
